Time;durP1;ratioP1;P1;durP2;ratioP2;P2;SDS_P1;SDS_P2;PMS_P1;PMS_P2;Temp;Humidity;BMP_temperature;BMP_pressure;BME280_temperature;BME280_humidity;BME280_pressure;Samples;Min_cycle;Max_cycle;Signal;HPM_P1;HPM_P2
2022/12/12 00:01:09;;;;;;;21.35;8.95;;;0.70;99.90;;;;;;5051643;28;20088;-52
2022/12/12 00:03:35;;;;;;;22.23;9.20;;;0.70;99.90;;;;;;5054263;28;20108;-54
2022/12/12 00:06:03;;;;;;;17.77;8.15;;;0.80;99.90;;;;;;5055288;28;20553;-55
2022/12/12 00:08:29;;;;;;;22.20;9.60;;;0.80;99.90;;;;;;5055490;28;20045;-53
2022/12/12 00:10:55;;;;;;;20.50;8.73;;;0.70;99.90;;;;;;5055074;28;20052;-51
2022/12/12 00:13:20;;;;;;;19.30;9.13;;;0.80;99.90;;;;;;5055390;28;20044;-51
2022/12/12 00:15:46;;;;;;;20.60;9.27;;;0.80;99.90;;;;;;5055313;28;20063;-53
2022/12/12 00:18:12;;;;;;;19.95;8.77;;;0.90;99.90;;;;;;5055002;28;20048;-51
2022/12/12 00:20:37;;;;;;;21.67;8.98;;;0.70;99.90;;;;;;5054829;28;20067;-51
2022/12/12 00:23:03;;;;;;;22.60;10.05;;;0.80;99.90;;;;;;5055012;28;20029;-51
2022/12/12 00:25:28;;;;;;;19.75;8.60;;;0.80;99.90;;;;;;5054866;28;20079;-52
2022/12/12 00:27:54;;;;;;;19.80;8.98;;;0.80;99.90;;;;;;5037013;28;20045;-52
2022/12/12 00:30:20;;;;;;;20.90;8.77;;;0.80;99.90;;;;;;5036866;28;20051;-55
2022/12/12 00:32:45;;;;;;;21.63;9.48;;;0.70;99.90;;;;;;5037144;28;20036;-55
2022/12/12 00:35:11;;;;;;;18.10;8.65;;;0.80;99.90;;;;;;5036880;28;20044;-51
2022/12/12 00:37:37;;;;;;;18.23;8.48;;;0.80;99.90;;;;;;5054499;28;20144;-51
2022/12/12 00:40:04;;;;;;;20.13;8.40;;;0.80;99.90;;;;;;5054459;28;20037;-51
2022/12/12 00:42:29;;;;;;;22.90;9.20;;;0.80;99.90;;;;;;5054243;28;20048;-51
2022/12/12 00:44:55;;;;;;;22.77;9.23;;;0.70;99.90;;;;;;5054839;28;20210;-51
2022/12/12 00:47:21;;;;;;;19.95;8.55;;;0.80;99.90;;;;;;5054632;28;20045;-54
2022/12/12 00:49:47;;;;;;;19.85;8.55;;;0.70;99.90;;;;;;5054572;28;20053;-52
2022/12/12 00:52:12;;;;;;;20.08;8.20;;;0.70;99.90;;;;;;5054495;28;20049;-51
2022/12/12 00:54:38;;;;;;;21.83;9.45;;;0.70;99.90;;;;;;5036625;28;20055;-53
2022/12/12 00:57:04;;;;;;;21.40;8.82;;;0.80;99.90;;;;;;5054390;28;20041;-53
2022/12/12 00:59:29;;;;;;;20.55;9.43;;;0.70;99.90;;;;;;5054548;28;20124;-51
2022/12/12 01:01:55;;;;;;;21.10;9.02;;;0.80;99.90;;;;;;5054374;28;20073;-52
2022/12/12 01:04:21;;;;;;;20.60;8.38;;;0.80;99.90;;;;;;5054108;28;20033;-54
2022/12/12 01:06:46;;;;;;;20.08;9.13;;;0.80;99.90;;;;;;5054177;28;20036;-52
2022/12/12 01:09:12;;;;;;;21.50;9.85;;;0.90;99.90;;;;;;5054191;28;20408;-51
2022/12/12 01:11:37;;;;;;;20.15;8.88;;;0.90;99.90;;;;;;5054059;28;20075;-54
2022/12/12 01:14:03;;;;;;;19.75;8.55;;;0.80;99.90;;;;;;5053398;28;20041;-54
2022/12/12 01:16:29;;;;;;;23.42;9.43;;;0.80;99.90;;;;;;5036190;28;20052;-55
2022/12/12 01:18:55;;;;;;;19.60;10.18;;;0.70;99.90;;;;;;5054052;28;20043;-51
2022/12/12 01:21:21;;;;;;;22.98;8.65;;;0.80;99.90;;;;;;5053850;28;20049;-53
2022/12/12 01:23:47;;;;;;;21.80;8.75;;;0.90;99.90;;;;;;5054097;28;20094;-54
2022/12/12 01:26:16;;;;;;;20.88;9.10;;;0.80;99.90;;;;;;5053964;28;20037;-54
2022/12/12 01:28:42;;;;;;;19.90;8.88;;;0.90;99.90;;;;;;5053836;28;20600;-54
2022/12/12 01:31:09;;;;;;;20.17;8.48;;;0.80;99.90;;;;;;5053794;28;20076;-55
2022/12/12 01:33:35;;;;;;;20.77;8.23;;;0.80;99.90;;;;;;5054194;28;20453;-55
2022/12/12 01:36:01;;;;;;;21.08;9.20;;;0.70;99.90;;;;;;5035810;28;20040;-53
2022/12/12 01:38:27;;;;;;;16.25;7.97;;;0.70;99.90;;;;;;5053816;28;20112;-55
2022/12/12 01:40:53;;;;;;;19.45;8.90;;;0.80;99.90;;;;;;5035306;28;20459;-53
2022/12/12 01:43:20;;;;;;;20.60;9.45;;;0.80;99.90;;;;;;5053432;28;20080;-55
2022/12/12 01:46:01;;;;;;;17.95;8.30;;;0.70;99.90;;;;;;5053693;28;20412;-52
2022/12/12 01:48:35;;;;;;;20.17;8.43;;;0.80;99.90;;;;;;5053635;28;20142;-52
2022/12/12 01:51:05;;;;;;;19.92;8.25;;;0.70;99.90;;;;;;5053497;28;20048;-52
2022/12/12 01:53:33;;;;;;;18.63;8.88;;;0.70;99.90;;;;;;5035384;28;20116;-51
2022/12/12 01:56:04;;;;;;;22.52;9.73;;;0.70;99.90;;;;;;5046361;28;20533;-53
2022/12/12 01:58:30;;;;;;;23.73;10.52;;;0.60;99.90;;;;;;5033509;28;20037;-51
2022/12/12 02:00:56;;;;;;;17.35;7.82;;;0.80;99.90;;;;;;5015438;28;20045;-53
2022/12/12 02:03:22;;;;;;;20.25;8.02;;;0.80;99.90;;;;;;5033097;28;20033;-54
2022/12/12 02:05:55;;;;;;;17.85;8.45;;;0.80;99.90;;;;;;5033304;28;20080;-55
2022/12/12 02:08:22;;;;;;;21.70;9.15;;;0.80;99.90;;;;;;5015367;28;20052;-54
2022/12/12 02:10:49;;;;;;;16.95;8.07;;;0.70;99.90;;;;;;5032926;28;20064;-54
2022/12/12 02:13:19;;;;;;;18.33;8.70;;;0.80;99.90;;;;;;5015162;28;20053;-55
2022/12/12 02:15:51;;;;;;;21.50;9.52;;;0.80;99.90;;;;;;5032811;28;20048;-55
2022/12/12 02:18:29;;;;;;;20.90;9.02;;;0.70;99.90;;;;;;5033085;28;20049;-52
2022/12/12 02:21:14;;;;;;;18.35;7.97;;;0.80;99.90;;;;;;5032886;28;20354;-52
2022/12/12 02:23:45;;;;;;;20.23;8.10;;;0.70;99.90;;;;;;5033026;28;20160;-51
2022/12/12 02:26:56;;;;;;;19.83;8.53;;;0.70;99.90;;;;;;5031919;28;20073;-53
2022/12/12 02:29:40;;;;;;;20.23;8.77;;;0.70;99.90;;;;;;5032564;28;20037;-51
2022/12/12 02:32:38;;;;;;;19.52;8.00;;;0.70;99.90;;;;;;5032741;28;20041;-50
2022/12/12 02:35:28;;;;;;;19.70;7.68;;;0.70;99.90;;;;;;5014935;28;20414;-53
2022/12/12 02:38:11;;;;;;;19.55;8.27;;;0.70;99.90;;;;;;5032755;28;20120;-51
2022/12/12 02:40:41;;;;;;;22.83;8.43;;;0.80;99.90;;;;;;5032436;28;20125;-54
2022/12/12 02:43:37;;;;;;;18.77;8.43;;;0.70;99.90;;;;;;5032325;28;20136;-54
2022/12/12 02:46:43;;;;;;;21.25;8.50;;;0.70;99.90;;;;;;4998817;28;20474;-53
2022/12/12 02:49:24;;;;;;;19.88;7.70;;;0.70;99.90;;;;;;5018187;28;20053;-53
2022/12/12 02:51:52;;;;;;;19.30;8.95;;;0.80;99.90;;;;;;5032453;28;20049;-51
2022/12/12 02:54:21;;;;;;;16.25;7.95;;;0.70;99.90;;;;;;5032342;28;20041;-52
2022/12/12 02:56:49;;;;;;;21.15;8.40;;;0.70;99.90;;;;;;5045507;28;20641;-54
2022/12/12 02:59:31;;;;;;;18.50;8.02;;;0.70;99.90;;;;;;5034689;28;20495;-52
2022/12/12 03:02:12;;;;;;;19.45;8.20;;;0.80;99.90;;;;;;5052271;28;20048;-51
2022/12/12 03:08:31;;;;;;;19.83;8.35;;;0.60;99.90;;;;;;5051947;28;20504;-52
2022/12/12 03:11:36;;;;;;;23.77;8.82;;;0.80;99.90;;;;;;5051920;28;20084;-51
2022/12/12 03:14:14;;;;;;;18.50;7.50;;;0.80;99.90;;;;;;5022597;28;20060;-51
2022/12/12 03:16:45;;;;;;;20.13;8.75;;;0.80;99.90;;;;;;5052052;28;20045;-52
2022/12/12 03:19:25;;;;;;;19.33;8.70;;;0.70;99.90;;;;;;5033842;28;20048;-54
2022/12/12 03:21:59;;;;;;;20.58;8.15;;;0.70;99.90;;;;;;5051876;28;20045;-52
2022/12/12 03:24:34;;;;;;;20.60;8.43;;;0.70;99.90;;;;;;5052103;28;20033;-51
2022/12/12 03:27:12;;;;;;;18.25;8.07;;;0.70;99.90;;;;;;5051766;28;20041;-51
2022/12/12 03:29:43;;;;;;;18.10;7.07;;;0.80;99.90;;;;;;5051831;28;20053;-51
2022/12/12 03:32:16;;;;;;;19.25;8.07;;;0.70;99.90;;;;;;5051740;28;20052;-53
2022/12/12 03:34:48;;;;;;;20.10;8.75;;;0.80;99.90;;;;;;5051754;28;20485;-54
2022/12/12 03:37:24;;;;;;;23.10;8.57;;;0.60;99.90;;;;;;5052371;28;20556;-55
2022/12/12 03:40:12;;;;;;;19.35;8.15;;;0.80;99.90;;;;;;5056125;28;20040;-54
2022/12/12 03:43:00;;;;;;;19.55;7.90;;;0.70;99.90;;;;;;5055513;28;20061;-55
2022/12/12 03:45:35;;;;;;;19.23;8.20;;;0.70;99.90;;;;;;5055608;28;20037;-55
2022/12/12 03:48:04;;;;;;;16.70;8.07;;;0.60;99.90;;;;;;5055717;28;20043;-55
2022/12/12 03:50:38;;;;;;;19.23;8.40;;;0.70;99.90;;;;;;5055913;28;20388;-54
2022/12/12 03:53:10;;;;;;;19.60;7.20;;;0.70;99.90;;;;;;5055581;28;20043;-54
2022/12/12 03:55:41;;;;;;;18.75;7.53;;;0.60;99.90;;;;;;5051901;28;20033;-54
2022/12/12 03:58:41;;;;;;;17.83;8.27;;;0.70;99.90;;;;;;5035373;28;20050;-55
2022/12/12 04:01:11;;;;;;;15.63;6.95;;;0.70;99.90;;;;;;5017829;28;20045;-55
2022/12/12 04:04:12;;;;;;;18.20;7.10;;;0.70;99.90;;;;;;5035763;28;20038;-54
2022/12/12 04:06:48;;;;;;;19.75;7.38;;;0.70;99.90;;;;;;5035350;28;20053;-54
2022/12/12 04:14:56;;;;;;;18.95;7.75;;;0.70;99.90;;;;;;5035302;28;20052;-53
2022/12/12 04:17:32;;;;;;;17.95;7.70;;;0.70;99.90;;;;;;5035360;28;20053;-56
2022/12/12 04:23:20;;;;;;;20.23;8.13;;;0.70;99.90;;;;;;5035298;28;20078;-55
2022/12/12 04:29:18;;;;;;;17.60;7.50;;;0.70;99.90;;;;;;5034634;28;20052;-53
2022/12/12 04:32:23;;;;;;;18.05;7.78;;;0.60;99.90;;;;;;5048636;28;20048;-51
2022/12/12 04:34:59;;;;;;;18.52;6.90;;;0.60;99.90;;;;;;5054770;28;20037;-54
2022/12/12 04:37:38;;;;;;;22.20;9.45;;;0.60;99.90;;;;;;5054869;28;20069;-52
2022/12/12 04:40:07;;;;;;;24.70;11.70;;;0.60;99.90;;;;;;5054848;28;20078;-51
2022/12/12 04:42:39;;;;;;;23.88;10.95;;;0.70;99.90;;;;;;5054361;28;20541;-52
2022/12/12 04:45:14;;;;;;;27.55;12.50;;;0.60;99.90;;;;;;5054703;28;20033;-51
2022/12/12 04:47:43;;;;;;;25.23;10.93;;;0.60;99.90;;;;;;5054602;28;20044;-52
2022/12/12 04:50:10;;;;;;;25.95;11.77;;;0.70;99.90;;;;;;5053451;28;20560;-53
2022/12/12 04:52:37;;;;;;;26.52;11.65;;;0.70;99.90;;;;;;5054472;28;20037;-52
2022/12/12 04:55:11;;;;;;;20.67;8.95;;;0.60;99.90;;;;;;5054587;28;20041;-50
2022/12/12 04:57:42;;;;;;;19.98;10.70;;;0.60;99.90;;;;;;5034670;28;20072;-51
2022/12/12 05:00:10;;;;;;;20.42;9.73;;;0.60;99.90;;;;;;5034257;28;20509;-52
2022/12/12 05:03:04;;;;;;;21.27;10.00;;;0.70;99.90;;;;;;5034533;28;20045;-53
2022/12/12 05:05:40;;;;;;;19.20;8.95;;;0.60;99.90;;;;;;5034298;28;20080;-51
2022/12/12 05:08:37;;;;;;;23.60;9.10;;;0.60;99.90;;;;;;5034489;28;20037;-53
2022/12/12 05:11:05;;;;;;;24.38;9.38;;;0.60;99.90;;;;;;5018358;28;20060;-55
2022/12/12 05:13:40;;;;;;;24.92;9.30;;;0.70;99.90;;;;;;5034260;28;20140;-54
2022/12/12 05:16:33;;;;;;;17.30;8.10;;;0.60;99.90;;;;;;5034111;28;20351;-52
2022/12/12 05:18:59;;;;;;;20.95;9.10;;;0.60;99.90;;;;;;5034242;28;20096;-53
2022/12/12 05:21:25;;;;;;;20.17;9.20;;;0.70;99.90;;;;;;5033849;28;20156;-55
2022/12/12 05:23:51;;;;;;;19.00;7.75;;;0.70;99.90;;;;;;5033863;28;20521;-55
2022/12/12 05:26:27;;;;;;;19.85;8.18;;;0.70;99.90;;;;;;5034200;28;20076;-54
2022/12/12 05:28:52;;;;;;;21.10;9.40;;;0.60;99.90;;;;;;5015982;28;20113;-54
2022/12/12 05:31:18;;;;;;;19.73;8.15;;;0.60;99.90;;;;;;5016102;28;20042;-54
2022/12/12 05:33:44;;;;;;;24.05;9.45;;;0.60;99.90;;;;;;5033737;28;20124;-54
2022/12/12 05:36:11;;;;;;;21.88;9.88;;;0.70;99.90;;;;;;5033993;28;20131;-55
2022/12/12 05:38:36;;;;;;;19.13;8.32;;;0.70;99.90;;;;;;5033789;28;20063;-54
2022/12/12 05:41:02;;;;;;;19.77;9.07;;;0.60;99.90;;;;;;5033558;28;20041;-51
2022/12/12 05:43:28;;;;;;;16.08;7.57;;;0.60;99.90;;;;;;5033685;28;20064;-55
2022/12/12 05:45:54;;;;;;;22.13;8.55;;;0.60;99.90;;;;;;5033664;28;20041;-55
2022/12/12 05:48:20;;;;;;;19.55;8.73;;;0.60;99.90;;;;;;5033381;28;20438;-55
2022/12/12 05:50:45;;;;;;;24.38;9.52;;;0.50;99.90;;;;;;5015641;28;20414;-55
2022/12/12 05:53:11;;;;;;;19.83;9.60;;;0.50;99.90;;;;;;5015809;28;20041;-53
2022/12/12 05:55:37;;;;;;;21.48;8.25;;;0.50;99.90;;;;;;5037135;28;20157;-54
2022/12/12 05:58:03;;;;;;;18.20;8.57;;;0.60;99.90;;;;;;5053234;28;20501;-54
2022/12/12 06:00:28;;;;;;;18.77;8.45;;;0.50;99.90;;;;;;5052939;28;20072;-52
2022/12/12 06:02:54;;;;;;;20.60;8.52;;;0.60;99.90;;;;;;5053266;28;20094;-51
2022/12/12 06:05:20;;;;;;;21.92;9.25;;;0.50;99.90;;;;;;5052928;28;20040;-51
2022/12/12 06:07:46;;;;;;;18.83;8.98;;;0.50;99.90;;;;;;5053197;28;20043;-55
2022/12/12 06:10:12;;;;;;;20.90;9.10;;;0.50;99.90;;;;;;5018509;28;20128;-52
2022/12/12 06:12:38;;;;;;;18.50;8.32;;;0.50;99.90;;;;;;5052898;28;20045;-54
2022/12/12 06:15:04;;;;;;;17.33;8.38;;;0.50;99.90;;;;;;5053053;28;20389;-52
2022/12/12 06:17:30;;;;;;;20.10;8.73;;;0.50;99.90;;;;;;5048445;28;20060;-57
2022/12/12 06:19:56;;;;;;;19.30;9.15;;;0.50;99.90;;;;;;5020735;28;20476;-57
2022/12/12 06:22:21;;;;;;;19.63;8.38;;;0.40;99.90;;;;;;5031899;28;20044;-55
2022/12/12 06:24:47;;;;;;;15.15;7.88;;;0.40;99.90;;;;;;5032238;28;20042;-60
2022/12/12 06:27:12;;;;;;;18.35;7.32;;;0.40;99.90;;;;;;5029072;28;20405;-60
2022/12/12 06:29:38;;;;;;;17.80;7.07;;;0.50;99.90;;;;;;5029967;28;20478;-60
2022/12/12 06:32:04;;;;;;;19.90;8.35;;;0.50;99.90;;;;;;5028980;28;20120;-60
2022/12/12 06:34:30;;;;;;;19.95;8.07;;;0.60;99.90;;;;;;5033577;28;20088;-52
2022/12/12 06:36:56;;;;;;;18.58;8.13;;;0.50;99.90;;;;;;5032739;28;20486;-56
2022/12/12 06:39:21;;;;;;;19.13;8.13;;;0.50;99.90;;;;;;5032858;28;20045;-60
2022/12/12 06:41:47;;;;;;;19.20;9.25;;;0.50;99.90;;;;;;5013795;28;20053;-53
2022/12/12 06:44:13;;;;;;;18.20;7.72;;;0.50;99.90;;;;;;5031846;28;20045;-55
2022/12/12 06:46:38;;;;;;;20.27;8.77;;;0.50;99.90;;;;;;5031866;28;20061;-53
2022/12/12 06:49:09;;;;;;;18.90;8.43;;;0.50;99.90;;;;;;5031910;28;20469;-55
2022/12/12 06:51:42;;;;;;;19.77;8.95;;;0.60;99.90;;;;;;5031507;28;20613;-55
2022/12/12 06:54:09;;;;;;;20.15;7.85;;;0.60;99.90;;;;;;5031822;28;20060;-54
2022/12/12 06:56:35;;;;;;;21.25;8.82;;;0.50;99.90;;;;;;5043085;28;20052;-54
2022/12/12 06:59:00;;;;;;;16.77;8.85;;;0.50;99.90;;;;;;5051902;28;20041;-54
2022/12/12 07:01:26;;;;;;;19.35;9.10;;;0.50;99.90;;;;;;5033841;28;20044;-55
2022/12/12 07:03:52;;;;;;;21.27;9.32;;;0.60;99.90;;;;;;5051086;28;20087;-53
2022/12/12 07:06:20;;;;;;;19.67;7.45;;;0.50;99.90;;;;;;5052128;28;20043;-55
2022/12/12 07:08:46;;;;;;;19.27;9.60;;;0.60;99.90;;;;;;5052359;28;20469;-55
2022/12/12 07:11:14;;;;;;;27.67;12.68;;;0.60;99.90;;;;;;5051849;28;20083;-55
2022/12/12 07:13:42;;;;;;;23.85;11.60;;;0.70;99.90;;;;;;5051122;28;20090;-52
2022/12/12 07:16:08;;;;;;;24.05;11.77;;;0.50;99.90;;;;;;5051925;28;20096;-55
2022/12/12 07:18:34;;;;;;;23.42;10.18;;;0.50;99.90;;;;;;5051388;28;20033;-56
2022/12/12 07:21:04;;;;;;;27.52;12.95;;;0.60;99.90;;;;;;5051772;28;20048;-53
2022/12/12 07:23:29;;;;;;;24.75;12.07;;;0.70;99.90;;;;;;5051712;28;20098;-54
2022/12/12 07:25:55;;;;;;;27.45;12.82;;;0.70;99.90;;;;;;5051087;28;20442;-55
2022/12/12 07:28:21;;;;;;;27.55;12.63;;;0.70;99.90;;;;;;5032758;28;20044;-54
2022/12/12 07:30:46;;;;;;;28.45;13.02;;;0.70;99.90;;;;;;5051217;28;20098;-55
2022/12/12 07:33:15;;;;;;;26.98;14.68;;;0.70;99.90;;;;;;5032835;28;20437;-55
2022/12/12 07:35:41;;;;;;;26.73;12.27;;;0.70;99.90;;;;;;5049780;28;20116;-55
2022/12/12 07:38:08;;;;;;;26.50;13.13;;;0.50;99.90;;;;;;5050977;28;20052;-54
2022/12/12 07:40:34;;;;;;;28.77;14.38;;;0.70;99.90;;;;;;5050013;28;20098;-54
2022/12/12 07:43:00;;;;;;;34.50;20.35;;;0.70;99.90;;;;;;5032675;28;20053;-53
2022/12/12 07:45:26;;;;;;;32.53;15.48;;;0.70;99.90;;;;;;5051220;28;20454;-52
2022/12/12 07:47:52;;;;;;;31.17;14.38;;;0.70;99.90;;;;;;5051058;28;20037;-55
2022/12/12 07:50:18;;;;;;;29.00;14.05;;;0.60;99.90;;;;;;5051037;28;20183;-55
2022/12/12 07:52:43;;;;;;;29.25;14.50;;;0.70;99.90;;;;;;5050636;28;20367;-54
2022/12/12 07:55:10;;;;;;;26.35;15.45;;;0.70;99.90;;;;;;5050992;28;20049;-54
2022/12/12 07:57:36;;;;;;;28.48;14.38;;;0.70;99.90;;;;;;5050750;28;20140;-52
2022/12/12 08:00:07;;;;;;;29.25;13.30;;;0.70;99.90;;;;;;5050691;28;20056;-52
2022/12/12 08:02:33;;;;;;;29.08;13.70;;;0.60;99.90;;;;;;5050530;28;20049;-55
2022/12/12 08:04:58;;;;;;;24.77;11.60;;;0.70;99.90;;;;;;5050684;28;20044;-56
2022/12/12 08:07:25;;;;;;;27.52;13.73;;;0.60;99.90;;;;;;5050779;28;20073;-55
2022/12/12 08:09:50;;;;;;;25.33;11.77;;;0.60;99.90;;;;;;5050690;28;20049;-55
2022/12/12 08:12:16;;;;;;;26.27;12.55;;;0.50;99.90;;;;;;5050747;28;20090;-54
2022/12/12 08:14:42;;;;;;;26.95;13.30;;;0.70;99.90;;;;;;5050842;28;20041;-55
2022/12/12 08:17:07;;;;;;;24.52;12.57;;;0.70;99.90;;;;;;5050598;28;20433;-55
2022/12/12 08:19:33;;;;;;;25.58;13.60;;;0.70;99.90;;;;;;5050709;28;20040;-54
2022/12/12 08:21:59;;;;;;;27.02;12.82;;;0.70;99.90;;;;;;5050445;28;20480;-54
2022/12/12 08:24:24;;;;;;;26.23;12.52;;;0.60;99.90;;;;;;5050226;28;20047;-51
2022/12/12 08:26:51;;;;;;;26.00;13.57;;;0.60;99.90;;;;;;5035554;28;20040;-52
2022/12/12 08:29:17;;;;;;;24.05;13.52;;;0.70;99.90;;;;;;5054000;28;20069;-52
2022/12/12 08:31:43;;;;;;;25.45;12.80;;;0.70;99.90;;;;;;5053882;28;20083;-54
2022/12/12 08:34:08;;;;;;;27.52;13.75;;;0.70;99.90;;;;;;5054259;28;20090;-52
2022/12/12 08:36:35;;;;;;;24.52;13.18;;;0.60;99.90;;;;;;5054194;28;20098;-54
2022/12/12 08:39:08;;;;;;;25.35;13.23;;;0.70;99.90;;;;;;5054353;28;20459;-54
2022/12/12 08:41:35;;;;;;;25.35;13.25;;;0.80;99.90;;;;;;5035703;28;20068;-55
2022/12/12 08:44:01;;;;;;;23.45;12.73;;;0.70;99.90;;;;;;5036049;28;20072;-52
2022/12/12 08:46:27;;;;;;;27.10;13.55;;;0.80;99.90;;;;;;5053693;28;20072;-55
2022/12/12 08:48:53;;;;;;;28.25;13.50;;;0.70;99.90;;;;;;5053674;28;20036;-55
2022/12/12 08:51:19;;;;;;;26.55;13.80;;;0.70;99.90;;;;;;5053625;28;20460;-53
2022/12/12 08:53:46;;;;;;;28.70;15.18;;;0.70;99.90;;;;;;5034972;28;20048;-56
2022/12/12 08:56:12;;;;;;;28.13;14.30;;;0.70;99.90;;;;;;5045183;28;20425;-52
2022/12/12 08:58:38;;;;;;;28.95;14.02;;;0.70;99.90;;;;;;5033547;28;20060;-55
2022/12/12 09:01:16;;;;;;;28.90;14.70;;;0.80;99.90;;;;;;5033438;28;20041;-54
2022/12/12 09:03:42;;;;;;;31.23;13.88;;;0.70;99.90;;;;;;5032657;28;20370;-52
2022/12/12 09:06:09;;;;;;;27.42;12.70;;;0.70;99.90;;;;;;5033066;28;20480;-52
2022/12/12 09:08:36;;;;;;;28.23;14.02;;;0.80;99.90;;;;;;5033550;28;20030;-51
2022/12/12 09:11:02;;;;;;;27.33;14.25;;;0.70;99.90;;;;;;5033380;28;20045;-53
2022/12/12 09:13:29;;;;;;;29.02;14.57;;;0.70;99.90;;;;;;5015691;28;20053;-51
2022/12/12 09:15:54;;;;;;;30.02;14.82;;;0.80;99.90;;;;;;5033369;28;20470;-52
2022/12/12 09:18:21;;;;;;;32.13;13.98;;;0.80;99.90;;;;;;5033212;28;20120;-52
2022/12/12 09:20:54;;;;;;;29.08;13.07;;;0.80;99.90;;;;;;5015545;28;20490;-53
2022/12/12 09:23:21;;;;;;;32.78;16.63;;;0.80;99.90;;;;;;5033332;28;20427;-55
2022/12/12 09:25:47;;;;;;;34.88;16.42;;;0.90;99.90;;;;;;5033319;28;20052;-52
2022/12/12 09:28:17;;;;;;;32.97;15.70;;;0.90;99.90;;;;;;5032984;28;20172;-54
2022/12/12 09:30:43;;;;;;;67.05;30.20;;;0.80;99.90;;;;;;5033322;28;20049;-55
2022/12/12 09:33:09;;;;;;;34.33;17.65;;;0.90;99.90;;;;;;5032852;28;20124;-54
2022/12/12 09:35:35;;;;;;;29.70;15.57;;;0.80;99.90;;;;;;5014576;28;20129;-54
2022/12/12 09:38:00;;;;;;;29.27;14.40;;;0.90;99.90;;;;;;5032868;28;20048;-51
2022/12/12 09:40:35;;;;;;;29.65;13.75;;;0.80;99.90;;;;;;5032769;28;20099;-54
2022/12/12 09:43:01;;;;;;;28.00;14.57;;;0.80;99.90;;;;;;5032635;28;20053;-55
2022/12/12 09:45:29;;;;;;;28.35;14.80;;;0.90;99.90;;;;;;5015078;28;20564;-55
2022/12/12 09:47:59;;;;;;;28.92;15.20;;;0.90;99.90;;;;;;5032994;28;20037;-55
2022/12/12 09:50:41;;;;;;;27.23;15.07;;;0.80;99.90;;;;;;5015547;28;20037;-53
2022/12/12 09:53:12;;;;;;;26.50;14.25;;;0.90;99.90;;;;;;5032978;28;20052;-53
2022/12/12 09:56:10;;;;;;;25.90;13.82;;;0.90;99.90;;;;;;5037456;28;20402;-55
2022/12/12 09:58:51;;;;;;;28.70;14.02;;;1.00;99.90;;;;;;5020367;28;20048;-54
2022/12/12 10:01:32;;;;;;;30.63;16.13;;;0.90;99.90;;;;;;5053155;28;20056;-56
2022/12/12 10:04:12;;;;;;;31.15;15.63;;;1.00;99.90;;;;;;5053142;28;20080;-55
2022/12/12 10:06:46;;;;;;;29.20;13.77;;;1.00;99.90;;;;;;5053021;28;20052;-51
2022/12/12 10:09:29;;;;;;;25.85;14.27;;;1.00;99.90;;;;;;5053216;28;20060;-53
2022/12/12 10:11:56;;;;;;;25.50;13.35;;;1.10;99.90;;;;;;5052880;28;20409;-52
2022/12/12 10:14:36;;;;;;;27.30;14.77;;;1.00;99.90;;;;;;5052875;28;20048;-52
2022/12/12 10:17:07;;;;;;;25.30;12.77;;;1.10;99.90;;;;;;5052771;28;20045;-52
2022/12/12 10:19:41;;;;;;;30.13;16.63;;;1.10;99.90;;;;;;5035054;28;20053;-54
2022/12/12 10:22:22;;;;;;;24.38;13.23;;;1.10;99.90;;;;;;5052664;28;20079;-52
2022/12/12 10:24:54;;;;;;;27.83;14.35;;;1.10;99.90;;;;;;5034596;28;20056;-52
2022/12/12 10:27:23;;;;;;;27.58;14.30;;;1.10;99.90;;;;;;5052610;28;20107;-52
2022/12/12 10:29:48;;;;;;;38.53;18.38;;;1.20;99.90;;;;;;5052746;28;20047;-54
2022/12/12 10:32:44;;;;;;;27.30;14.43;;;1.20;99.90;;;;;;5052767;28;20131;-55
2022/12/12 10:35:25;;;;;;;24.58;12.90;;;1.20;99.90;;;;;;5052405;28;20572;-54
2022/12/12 10:38:06;;;;;;;24.70;13.27;;;1.20;99.90;;;;;;5052691;28;20373;-55
2022/12/12 10:40:50;;;;;;;25.67;13.82;;;1.20;99.90;;;;;;5034131;28;20044;-53
2022/12/12 10:43:25;;;;;;;24.70;13.13;;;1.30;99.90;;;;;;5034226;28;20080;-56
2022/12/12 10:46:13;;;;;;;27.85;13.45;;;1.20;99.90;;;;;;5052273;28;20091;-56
2022/12/12 10:48:39;;;;;;;24.55;13.18;;;1.20;99.90;;;;;;5051495;28;20491;-55
2022/12/12 10:51:11;;;;;;;26.65;12.68;;;1.30;99.90;;;;;;5052348;28;20041;-55
2022/12/12 10:53:38;;;;;;;25.02;12.88;;;1.30;99.90;;;;;;5052177;28;20037;-55
2022/12/12 10:56:12;;;;;;;26.63;12.73;;;1.30;99.90;;;;;;5052072;28;20029;-56
2022/12/12 10:58:43;;;;;;;26.13;13.10;;;1.40;99.90;;;;;;5052065;28;20041;-55
2022/12/12 11:01:11;;;;;;;26.48;13.88;;;1.50;99.90;;;;;;5052270;28;20041;-55
2022/12/12 11:03:45;;;;;;;25.70;13.00;;;1.50;99.90;;;;;;5052301;28;20033;-52
2022/12/12 11:06:38;;;;;;;25.25;12.18;;;1.50;99.90;;;;;;5034265;28;20060;-55
2022/12/12 11:09:08;;;;;;;40.58;18.92;;;1.50;99.90;;;;;;5051848;28;20362;-54
2022/12/12 11:11:33;;;;;;;49.42;21.70;;;1.50;99.90;;;;;;5052166;28;20120;-53
2022/12/12 11:14:02;;;;;;;36.35;17.45;;;1.50;99.90;;;;;;5052035;28;20136;-56
2022/12/12 11:16:42;;;;;;;34.30;15.68;;;1.50;99.90;;;;;;5052245;28;20040;-54
2022/12/12 11:19:19;;;;;;;29.88;16.45;;;1.40;99.90;;;;;;5052141;28;20044;-55
2022/12/12 11:21:46;;;;;;;26.65;13.00;;;1.50;99.90;;;;;;5052033;28;20045;-55
2022/12/12 11:24:16;;;;;;;25.75;13.75;;;1.50;99.90;;;;;;5051943;28;20124;-56
2022/12/12 11:26:48;;;;;;;28.55;12.93;;;1.60;99.90;;;;;;5033930;28;20138;-55
2022/12/12 11:29:39;;;;;;;26.13;14.32;;;1.60;99.90;;;;;;5052209;28;20048;-55
2022/12/12 11:32:13;;;;;;;23.80;13.25;;;1.50;99.90;;;;;;5051651;28;20041;-55
2022/12/12 11:34:42;;;;;;;30.80;15.63;;;1.50;99.90;;;;;;5051668;28;20736;-55
2022/12/12 11:37:18;;;;;;;24.52;12.25;;;1.60;99.90;;;;;;5051440;28;20048;-52
2022/12/12 11:39:48;;;;;;;24.27;13.68;;;1.60;99.90;;;;;;5051646;28;20047;-56
2022/12/12 11:42:24;;;;;;;24.02;12.63;;;1.60;99.90;;;;;;5051516;28;20523;-54
2022/12/12 11:45:21;;;;;;;24.80;13.30;;;1.50;99.90;;;;;;5051985;28;20044;-55
2022/12/12 11:47:47;;;;;;;26.20;14.73;;;1.50;99.90;;;;;;5051768;28;20121;-54
2022/12/12 11:50:25;;;;;;;24.15;13.00;;;1.60;99.90;;;;;;5017264;28;20485;-52
2022/12/12 11:52:59;;;;;;;26.50;13.80;;;1.70;99.90;;;;;;5051529;28;20094;-53
2022/12/12 11:56:05;;;;;;;25.25;12.98;;;1.60;99.90;;;;;;5049097;28;20041;-53
2022/12/12 11:58:48;;;;;;;25.98;13.23;;;1.60;99.90;;;;;;5014194;28;20050;-53
2022/12/12 12:01:30;;;;;;;21.60;11.77;;;1.60;99.90;;;;;;5035512;28;20049;-54
2022/12/12 12:03:56;;;;;;;;;;;1.60;99.90;;;;;;5036157;28;20037;-52
2022/12/12 12:06:43;;;;;;;22.92;12.13;;;1.60;99.90;;;;;;5035413;28;19925;-53
2022/12/12 12:09:50;;;;;;;24.88;12.82;;;1.50;99.90;;;;;;5035473;28;20037;-54
2022/12/12 12:12:27;;;;;;;22.02;11.95;;;1.60;99.90;;;;;;4996252;28;20041;-56
2022/12/12 12:15:17;;;;;;;23.17;12.48;;;1.60;99.90;;;;;;5035553;28;20037;-52
2022/12/12 12:18:01;;;;;;;22.63;12.48;;;1.60;99.90;;;;;;5035162;28;20397;-56
2022/12/12 12:21:01;;;;;;;25.40;12.82;;;1.60;99.90;;;;;;5035078;28;20048;-53
2022/12/12 12:23:50;;;;;;;24.45;12.13;;;1.60;99.90;;;;;;5034952;28;20075;-51
2022/12/12 12:26:45;;;;;;;23.95;13.18;;;1.70;99.90;;;;;;5017450;28;20056;-54
2022/12/12 12:29:18;;;;;;;24.23;13.30;;;1.70;99.90;;;;;;5027583;28;20053;-53
2022/12/12 12:32:05;;;;;;;24.70;12.80;;;1.80;99.90;;;;;;5035138;28;20042;-53
2022/12/12 12:34:30;;;;;;;24.38;13.75;;;1.80;99.90;;;;;;5034854;28;20041;-55
2022/12/12 12:37:14;;;;;;;25.15;12.35;;;1.70;99.90;;;;;;5035139;28;20450;-52
2022/12/12 12:40:19;;;;;;;23.23;13.00;;;1.70;99.90;;;;;;5034715;28;20041;-56
2022/12/12 12:42:47;;;;;;;24.45;13.50;;;1.70;99.90;;;;;;4987358;28;20524;-56
2022/12/12 12:45:34;;;;;;;25.25;12.80;;;1.80;99.90;;;;;;5034864;28;20415;-56
2022/12/12 12:48:10;;;;;;;25.90;13.20;;;1.70;99.90;;;;;;5034867;28;20099;-55
2022/12/12 12:50:58;;;;;;;27.75;13.50;;;1.70;99.90;;;;;;5016546;28;20149;-55
2022/12/12 12:53:36;;;;;;;26.63;13.13;;;1.70;99.90;;;;;;5034498;28;20195;-55
2022/12/12 12:56:18;;;;;;;24.67;13.40;;;1.70;99.90;;;;;;5040637;28;20037;-54
2022/12/12 12:58:47;;;;;;;30.00;13.75;;;1.80;99.90;;;;;;5042387;28;20040;-54
2022/12/12 13:01:23;;;;;;;25.35;13.43;;;1.80;99.90;;;;;;5027528;28;20048;-55
2022/12/12 13:04:00;;;;;;;25.75;14.13;;;1.80;99.90;;;;;;5043579;28;20037;-55
2022/12/12 13:06:51;;;;;;;25.70;14.13;;;1.70;99.90;;;;;;5026660;28;20072;-53
2022/12/12 13:09:46;;;;;;;27.13;14.40;;;1.80;99.90;;;;;;5044916;28;20044;-54
2022/12/12 13:12:34;;;;;;;22.70;13.30;;;1.80;99.90;;;;;;5023942;28;20064;-55
2022/12/12 13:15:22;;;;;;;24.58;13.32;;;1.80;99.90;;;;;;5034152;28;20041;-53
2022/12/12 13:18:00;;;;;;;25.17;13.43;;;1.80;99.90;;;;;;5034298;28;20045;-51
2022/12/12 13:20:29;;;;;;;25.58;13.90;;;1.70;99.90;;;;;;5034183;28;20398;-52
2022/12/12 13:22:55;;;;;;;20.33;11.65;;;1.70;99.90;;;;;;5034208;28;20052;-52
2022/12/12 13:25:41;;;;;;;24.40;12.68;;;1.80;99.90;;;;;;5033838;28;20524;-53